Glenview, Kentucky
Current Conditions -  °F | °C
As of 6:53 PM on Wednesday 22 Oct 2014 (Local Time) from KLOU Reporting Station
Few Clouds Few Clouds  
Wind Chill: 58°   Ceiling: Unl
Heat Index: 58°   Visibility: 10mi
Dew Point: 40°   Wind: 3mph
Humidity: 51%   Direction: 30°NNE
Pressure: 30.24"   Gusts: NA
Location:  38.31°N, 85.65°W
Report Text: KLOU 222253Z 03003KT 10SM FEW045 14/04 A3024 RMK AO2 SLP241 T01440044
Loading
Personal Weather Stations






























Interactive Weather Map
Tropical Storm Tracking
New forecast layout! Learn more

10-Day Weather Forecast

Advertisements
Track Severe Weather on mobile